createdAt,value
2019-02-11T00:00:12.934Z,0
2019-02-11T00:01:12.668Z,0
2019-02-11T00:02:12.901Z,0
2019-02-11T00:03:12.396Z,0
2019-02-11T00:04:13.134Z,0
2019-02-11T00:05:13.157Z,0
2019-02-11T00:06:12.365Z,0
2019-02-11T00:07:12.362Z,0
2019-02-11T00:08:12.830Z,0
2019-02-11T00:09:12.615Z,0
2019-02-11T00:10:13.065Z,0
2019-02-11T00:11:12.577Z,0
2019-02-11T00:12:12.798Z,0
2019-02-11T00:13:18.025Z,0
2019-02-11T00:14:13.050Z,0
2019-02-11T00:15:12.536Z,0
2019-02-11T00:16:12.782Z,0
2019-02-11T00:17:12.526Z,0
2019-02-11T00:18:12.768Z,0
2019-02-11T00:19:13.488Z,0
2019-02-11T00:20:12.744Z,0
2019-02-11T00:21:12.724Z,0
2019-02-11T00:22:12.718Z,0
2019-02-11T00:23:12.724Z,0
2019-02-11T00:24:13.810Z,0
2019-02-11T00:25:12.683Z,0
2019-02-11T00:26:12.451Z,0
2019-02-11T00:27:12.681Z,0
2019-02-11T00:28:12.659Z,0
2019-02-11T00:29:12.904Z,0
2019-02-11T00:30:12.645Z,0
2019-02-11T00:31:12.952Z,0
2019-02-11T00:32:12.382Z,0
2019-02-11T00:33:12.120Z,0
2019-02-11T00:34:12.858Z,0
2019-02-11T00:35:12.359Z,0
2019-02-11T00:36:12.335Z,0
2019-02-11T00:37:12.580Z,0
2019-02-11T00:38:12.575Z,0
2019-02-11T00:39:12.561Z,0
2019-02-11T00:40:12.311Z,0
2019-02-11T00:41:12.041Z,0
2019-02-11T00:42:12.033Z,0
2019-02-11T00:43:18.845Z,0
2019-02-11T00:44:12.541Z,0
2019-02-11T00:45:12.254Z,0
2019-02-11T00:46:12.005Z,0
2019-02-11T00:47:12.485Z,0
2019-02-11T00:48:14.165Z,0
2019-02-11T00:49:12.216Z,0
2019-02-11T00:50:12.241Z,0
2019-02-11T00:51:12.200Z,0
2019-02-11T00:52:12.742Z,0
2019-02-11T00:53:12.683Z,0
2019-02-11T00:54:12.663Z,0
2019-02-11T00:55:12.421Z,0
2019-02-11T00:56:12.666Z,0
2019-02-11T00:57:12.402Z,0
2019-02-11T00:58:12.404Z,0
2019-02-11T00:59:12.623Z,0
2019-02-11T01:00:12.116Z,0
2019-02-11T01:01:12.122Z,0
2019-02-11T01:02:11.854Z,0
2019-02-11T01:03:12.344Z,0
2019-02-11T01:04:12.613Z,0
2019-02-11T01:05:12.072Z,0
2019-02-11T01:06:12.057Z,0
2019-02-11T01:07:12.341Z,0
2019-02-11T01:08:12.558Z,0
2019-02-11T01:09:12.090Z,0
2019-02-11T01:10:12.286Z,0
2019-02-11T01:11:12.534Z,0
2019-02-11T01:12:12.261Z,0
2019-02-11T01:13:12.268Z,0
2019-02-11T01:14:12.254Z,0
2019-02-11T01:15:12.228Z,0
2019-02-11T01:16:11.755Z,0
2019-02-11T01:17:12.475Z,0
2019-02-11T01:18:12.205Z,0
2019-02-11T01:19:11.950Z,0
2019-02-11T01:20:12.448Z,0
2019-02-11T01:21:11.933Z,0
2019-02-11T01:22:12.171Z,0
2019-02-11T01:23:11.917Z,0
2019-02-11T01:24:12.398Z,0
2019-02-11T01:25:12.139Z,0
2019-02-11T01:26:12.122Z,0
2019-02-11T01:27:11.630Z,0
2019-02-11T01:28:11.868Z,0
2019-02-11T01:29:12.094Z,0
2019-02-11T01:30:12.340Z,0
2019-02-11T01:31:11.580Z,0
2019-02-11T01:32:12.311Z,0
2019-02-11T01:33:12.310Z,0
2019-02-11T01:34:12.039Z,0
2019-02-11T01:35:12.059Z,0
2019-02-11T01:36:11.785Z,0
2019-02-11T01:37:11.770Z,0
2019-02-11T01:38:12.271Z,0
2019-02-11T01:39:11.998Z,0
2019-02-11T01:40:11.506Z,0
2019-02-11T01:41:12.247Z,0
2019-02-11T01:42:11.721Z,0
2019-02-11T01:43:11.978Z,0
2019-02-11T01:44:11.971Z,0
2019-02-11T01:45:11.707Z,0
2019-02-11T01:46:11.946Z,0
2019-02-11T01:47:12.190Z,0
2019-02-11T01:48:12.159Z,0
2019-02-11T01:49:11.904Z,0
2019-02-11T01:50:11.665Z,0
2019-02-11T01:51:11.904Z,0
2019-02-11T01:52:11.896Z,0
2019-02-11T01:53:11.876Z,0
2019-02-11T01:54:12.128Z,0
2019-02-11T01:55:12.107Z,0
2019-02-11T01:56:11.915Z,0
2019-02-11T01:57:11.846Z,0
2019-02-11T01:58:12.071Z,0
2019-02-11T01:59:11.817Z,0
2019-02-11T02:00:12.052Z,0
2019-02-11T02:01:11.793Z,0
2019-02-11T02:02:12.041Z,0
2019-02-11T02:03:12.045Z,0
2019-02-11T02:04:12.016Z,0
2019-02-11T02:05:12.046Z,0
2019-02-11T02:06:12.014Z,0
2019-02-11T02:07:12.004Z,0
2019-02-11T02:08:11.484Z,0
2019-02-11T02:09:11.727Z,0
2019-02-11T02:10:11.970Z,0
2019-02-11T02:11:11.701Z,0
2019-02-11T02:12:11.960Z,0
2019-02-11T02:13:11.940Z,0
2019-02-11T02:14:11.921Z,0
2019-02-11T02:15:11.959Z,0
2019-02-11T02:16:11.923Z,0
2019-02-11T02:17:11.420Z,0
2019-02-11T02:18:11.400Z,0
2019-02-11T02:19:11.876Z,0
2019-02-11T02:20:11.888Z,0
2019-02-11T02:21:11.618Z,0
2019-02-11T02:22:11.857Z,0
2019-02-11T02:23:11.593Z,0
2019-02-11T02:24:11.845Z,0
2019-02-11T02:25:11.840Z,0
2019-02-11T02:26:11.340Z,0
2019-02-11T02:27:11.586Z,0
2019-02-11T02:28:11.567Z,0
2019-02-11T02:29:11.561Z,0
2019-02-11T02:30:11.586Z,0
2019-02-11T02:31:11.801Z,0
2019-02-11T02:32:11.808Z,0
2019-02-11T02:33:11.786Z,0
2019-02-11T02:34:11.268Z,0
2019-02-11T02:35:11.494Z,0
2019-02-11T02:36:11.493Z,0
2019-02-11T02:37:11.482Z,0
2019-02-11T02:38:11.717Z,0
2019-02-11T02:39:11.705Z,0
2019-02-11T02:40:11.703Z,0
2019-02-11T02:41:11.194Z,0
2019-02-11T02:42:11.684Z,0
2019-02-11T02:43:11.431Z,0
2019-02-11T02:44:11.432Z,0
2019-02-11T02:45:11.412Z,0
2019-02-11T02:46:11.397Z,0
2019-02-11T02:47:11.145Z,0
2019-02-11T02:48:11.383Z,0
2019-02-11T02:49:11.685Z,0
2019-02-11T02:50:11.370Z,0
2019-02-11T02:51:11.367Z,0
2019-02-11T02:52:11.106Z,0
2019-02-11T02:53:11.194Z,0
2019-02-11T02:54:11.079Z,0
2019-02-11T02:55:11.322Z,0
2019-02-11T02:56:11.325Z,0
2019-02-11T02:57:11.077Z,0
2019-02-11T02:58:11.568Z,0
2019-02-11T02:59:11.291Z,0
2019-02-11T03:00:11.527Z,0
2019-02-11T03:01:11.500Z,0
2019-02-11T03:02:11.249Z,0
2019-02-11T03:03:11.487Z,0
2019-02-11T03:04:10.992Z,0
2019-02-11T03:05:11.213Z,0
2019-02-11T03:06:10.743Z,0
2019-02-11T03:07:11.207Z,0
2019-02-11T03:08:11.484Z,0
2019-02-11T03:09:11.452Z,0
2019-02-11T03:10:11.208Z,0
2019-02-11T03:11:10.923Z,0
2019-02-11T03:12:11.402Z,0
2019-02-11T03:13:12.362Z,0
2019-02-11T03:14:13.125Z,0
2019-02-11T03:15:11.409Z,0
2019-02-11T03:16:11.409Z,0
2019-02-11T03:17:11.370Z,0
2019-02-11T03:18:11.122Z,0
2019-02-11T03:19:11.111Z,0
2019-02-11T03:20:11.089Z,0
2019-02-11T03:21:10.908Z,0
2019-02-11T03:22:11.078Z,0
2019-02-11T03:23:10.807Z,0
2019-02-11T03:24:10.797Z,0
2019-02-11T03:25:11.059Z,0
2019-02-11T03:26:10.544Z,0
2019-02-11T03:27:11.098Z,0
2019-02-11T03:28:11.036Z,0
2019-02-11T03:29:11.276Z,0
2019-02-11T03:30:11.052Z,0
2019-02-11T03:31:11.264Z,0
2019-02-11T03:32:11.250Z,0
2019-02-11T03:33:10.752Z,0
2019-02-11T03:34:10.987Z,0
2019-02-11T03:35:10.949Z,0
2019-02-11T03:36:10.951Z,0
2019-02-11T03:37:10.958Z,0
2019-02-11T03:38:10.670Z,0
2019-02-11T03:39:10.649Z,0
2019-02-11T03:40:10.888Z,0
2019-02-11T03:41:10.880Z,0
2019-02-11T03:42:11.117Z,0
2019-02-11T03:43:11.114Z,0
2019-02-11T03:44:19.231Z,0
2019-02-11T03:45:10.851Z,0
2019-02-11T03:46:10.850Z,0
2019-02-11T03:47:10.836Z,0
2019-02-11T03:48:10.824Z,0
2019-02-11T03:49:10.572Z,0
2019-02-11T03:50:12.413Z,0
2019-02-11T03:51:10.790Z,0
2019-02-11T03:52:10.532Z,0
2019-02-11T03:53:10.775Z,0
2019-02-11T03:54:10.525Z,0
2019-02-11T03:55:10.762Z,0
2019-02-11T03:56:11.034Z,0
2019-02-11T03:57:10.999Z,0
2019-02-11T03:58:10.966Z,0
2019-02-11T03:59:10.723Z,0
2019-02-11T04:00:10.966Z,0
2019-02-11T04:01:10.692Z,0
2019-02-11T04:02:10.695Z,0
2019-02-11T04:03:11.028Z,0
2019-02-11T04:04:10.683Z,0
2019-02-11T04:05:10.416Z,0
2019-02-11T04:06:10.909Z,0
2019-02-11T04:07:10.627Z,0
2019-02-11T04:08:10.637Z,0
2019-02-11T04:09:10.678Z,0
2019-02-11T04:10:10.611Z,0
2019-02-11T04:11:10.353Z,0
2019-02-11T04:12:10.588Z,0
2019-02-11T04:13:10.329Z,0
2019-02-11T04:14:10.307Z,0
2019-02-11T04:15:10.818Z,0
2019-02-11T04:16:10.552Z,0
2019-02-11T04:17:10.544Z,0
2019-02-11T04:18:10.542Z,0
2019-02-11T04:19:10.280Z,0
2019-02-11T04:20:10.578Z,0
2019-02-11T04:21:10.762Z,0
2019-02-11T04:22:10.728Z,0
2019-02-11T04:23:10.482Z,0
2019-02-11T04:24:10.471Z,0
2019-02-11T04:25:10.230Z,0
2019-02-11T04:26:10.471Z,0
2019-02-11T04:27:10.271Z,0
2019-02-11T04:28:10.196Z,0
2019-02-11T04:29:10.456Z,0
2019-02-11T04:30:10.197Z,0
2019-02-11T04:31:10.408Z,0
2019-02-11T04:32:10.653Z,0
2019-02-11T04:33:10.374Z,0
2019-02-11T04:34:10.617Z,0
2019-02-11T04:35:10.376Z,0
2019-02-11T04:36:10.614Z,0
2019-02-11T04:37:10.627Z,0
2019-02-11T04:38:10.591Z,0
2019-02-11T04:39:10.311Z,0
2019-02-11T04:40:10.596Z,0
2019-02-11T04:41:09.791Z,0
2019-02-11T04:42:10.537Z,0
2019-02-11T04:43:10.558Z,0
2019-02-11T04:44:10.026Z,0
2019-02-11T04:45:10.512Z,0
2019-02-11T04:46:10.248Z,0
2019-02-11T04:47:10.485Z,0
2019-02-11T04:48:09.742Z,0
2019-02-11T04:49:10.510Z,0
2019-02-11T04:50:10.519Z,0
2019-02-11T04:51:09.717Z,0
2019-02-11T04:52:10.470Z,0
2019-02-11T04:53:10.195Z,0
2019-02-11T04:54:09.942Z,0
2019-02-11T04:55:10.407Z,0
2019-02-11T04:56:10.420Z,0
2019-02-11T04:57:10.171Z,0
2019-02-11T04:58:09.880Z,0
2019-02-11T04:59:10.106Z,0
2019-02-11T05:00:10.374Z,0
2019-02-11T05:01:10.102Z,0
2019-02-11T05:02:09.857Z,0
2019-02-11T05:03:10.085Z,0
2019-02-11T05:04:09.883Z,0
2019-02-11T05:05:10.333Z,0
2019-02-11T05:06:09.564Z,0
2019-02-11T05:07:10.071Z,0
2019-02-11T05:08:10.053Z,0
2019-02-11T05:09:10.306Z,0
2019-02-11T05:10:09.763Z,0
2019-02-11T05:11:10.295Z,0
2019-02-11T05:12:10.230Z,0
2019-02-11T05:13:10.237Z,0
2019-02-11T05:14:09.723Z,0
2019-02-11T05:15:09.723Z,0
2019-02-11T05:16:09.940Z,0
2019-02-11T05:17:09.691Z,0
2019-02-11T05:18:10.270Z,0
2019-02-11T05:19:10.178Z,0
2019-02-11T05:20:10.194Z,0
2019-02-11T05:21:09.915Z,0
2019-02-11T05:22:10.172Z,0
2019-02-11T05:23:09.908Z,0
2019-02-11T05:24:10.129Z,0
2019-02-11T05:25:10.128Z,0
2019-02-11T05:26:09.601Z,0
2019-02-11T05:27:09.901Z,0
2019-02-11T05:28:10.080Z,0
2019-02-11T05:29:09.568Z,0
2019-02-11T05:30:09.570Z,0
2019-02-11T05:31:09.812Z,0
2019-02-11T05:32:09.829Z,0
2019-02-11T05:33:10.155Z,0
2019-02-11T05:34:09.778Z,0
2019-02-11T05:35:09.782Z,0
2019-02-11T05:36:09.797Z,0
2019-02-11T05:37:10.010Z,0
2019-02-11T05:38:09.727Z,0
2019-02-11T05:39:09.714Z,0
2019-02-11T05:40:09.698Z,0
2019-02-11T05:41:09.684Z,0
2019-02-11T05:42:09.695Z,0
2019-02-11T05:43:09.670Z,0
2019-02-11T05:44:10.494Z,0
2019-02-11T05:45:09.681Z,0
2019-02-11T05:46:09.425Z,0
2019-02-11T05:47:09.649Z,0
2019-02-11T05:48:09.637Z,0
2019-02-11T05:49:09.873Z,0
2019-02-11T05:50:09.873Z,0
2019-02-11T05:51:09.603Z,0
2019-02-11T05:52:09.336Z,0
2019-02-11T05:53:09.867Z,0
2019-02-11T05:54:09.584Z,0
2019-02-11T05:55:09.577Z,0
2019-02-11T05:56:09.812Z,0
2019-02-11T05:57:09.804Z,0
2019-02-11T05:58:09.295Z,0
2019-02-11T05:59:09.526Z,0
2019-02-11T06:00:09.648Z,0
2019-02-11T06:01:09.753Z,0
2019-02-11T06:02:09.737Z,0
2019-02-11T06:03:11.950Z,0
2019-02-11T06:04:09.477Z,0
2019-02-11T06:05:09.459Z,0
2019-02-11T06:06:09.746Z,0
2019-02-11T06:07:09.684Z,0
2019-02-11T06:08:09.423Z,0
2019-02-11T06:09:09.410Z,0
2019-02-11T06:10:09.165Z,0
2019-02-11T06:11:09.404Z,0
2019-02-11T06:12:09.136Z,0
2019-02-11T06:13:09.378Z,4
2019-02-11T06:14:09.391Z,4
2019-02-11T06:15:11.532Z,4
2019-02-11T06:16:09.332Z,4
2019-02-11T06:17:09.083Z,0
2019-02-11T06:18:09.064Z,4
2019-02-11T06:19:09.312Z,4
2019-02-11T06:20:09.298Z,4
2019-02-11T06:21:09.056Z,4
2019-02-11T06:22:09.023Z,8
2019-02-11T06:23:08.789Z,4
2019-02-11T06:24:09.007Z,8
2019-02-11T06:25:09.679Z,8
2019-02-11T06:26:09.265Z,8
2019-02-11T06:27:09.224Z,12
2019-02-11T06:28:08.980Z,16
2019-02-11T06:29:09.235Z,16
2019-02-11T06:30:08.978Z,20
2019-02-11T06:31:09.207Z,24
2019-02-11T06:32:09.195Z,24
2019-02-11T06:33:09.511Z,24
2019-02-11T06:34:09.415Z,28
2019-02-11T06:35:09.405Z,32
2019-02-11T06:36:19.007Z,36
2019-02-11T06:37:09.159Z,40
2019-02-11T06:38:09.151Z,40
2019-02-11T06:39:09.372Z,44
2019-02-11T06:40:08.871Z,44
2019-02-11T06:41:09.104Z,52
2019-02-11T06:42:09.339Z,60
2019-02-11T06:43:08.865Z,68
2019-02-11T06:44:08.843Z,72
2019-02-11T06:45:17.322Z,80
2019-02-11T06:46:08.880Z,88
2019-02-11T06:47:09.036Z,100
2019-02-11T06:48:08.808Z,108
2019-02-11T06:49:08.775Z,116
2019-02-11T06:50:09.031Z,128
2019-02-11T06:51:08.507Z,140
2019-02-11T06:52:09.254Z,144
2019-02-11T06:53:08.987Z,156
2019-02-11T06:54:08.727Z,160
2019-02-11T06:55:08.717Z,168
2019-02-11T06:56:08.749Z,180
2019-02-11T06:57:09.208Z,192
2019-02-11T06:58:09.199Z,208
2019-02-11T06:59:08.951Z,224
2019-02-11T07:00:08.670Z,248
2019-02-11T07:01:09.160Z,280
2019-02-11T07:02:08.908Z,312
2019-02-11T07:03:09.146Z,336
2019-02-11T07:04:09.093Z,356
2019-02-11T07:05:09.121Z,376
2019-02-11T07:06:08.602Z,404
2019-02-11T07:07:08.344Z,440
2019-02-11T07:08:10.446Z,480
2019-02-11T07:09:08.820Z,524
2019-02-11T07:10:08.375Z,568
2019-02-11T07:11:08.836Z,616
2019-02-11T07:12:08.565Z,656
2019-02-11T07:13:08.798Z,692
2019-02-11T07:14:09.036Z,708
2019-02-11T07:15:08.527Z,732
2019-02-11T07:16:09.051Z,772
2019-02-11T07:17:09.016Z,796
2019-02-11T07:18:08.752Z,812
2019-02-11T07:19:08.982Z,820
2019-02-11T07:20:08.983Z,828
2019-02-11T07:21:08.978Z,824
2019-02-11T07:22:08.722Z,820
2019-02-11T07:23:08.716Z,832
2019-02-11T07:24:08.697Z,880
2019-02-11T07:25:08.929Z,956
2019-02-11T07:26:08.433Z,1052
2019-02-11T07:27:08.913Z,1168
2019-02-11T07:28:08.651Z,1272
2019-02-11T07:29:08.882Z,1368
2019-02-11T07:30:08.663Z,1456
2019-02-11T07:31:08.612Z,1532
2019-02-11T07:32:08.871Z,1588
2019-02-11T07:33:08.594Z,1604
2019-02-11T07:34:08.356Z,1600
2019-02-11T07:35:08.596Z,1608
2019-02-11T07:36:08.818Z,1576
2019-02-11T07:37:08.322Z,1540
2019-02-11T07:38:08.540Z,1484
2019-02-11T07:39:08.553Z,1436
2019-02-11T07:40:08.547Z,1376
2019-02-11T07:41:08.547Z,1328
2019-02-11T07:42:09.578Z,1316
2019-02-11T07:43:08.501Z,1308
2019-02-11T07:44:08.729Z,1300
2019-02-11T07:45:08.479Z,1292
2019-02-11T07:46:08.217Z,1320
2019-02-11T07:47:08.501Z,1348
2019-02-11T07:48:08.217Z,1352
2019-02-11T07:49:08.700Z,1336
2019-02-11T07:50:08.448Z,1324
2019-02-11T07:51:08.428Z,1344
2019-02-11T07:52:08.429Z,1384
2019-02-11T07:53:08.398Z,1424
2019-02-11T07:54:08.161Z,1460
2019-02-11T07:55:08.388Z,1468
2019-02-11T07:56:08.136Z,1472
2019-02-11T07:57:08.372Z,1480
2019-02-11T07:58:08.604Z,1456
2019-02-11T07:59:08.599Z,1400
2019-02-11T08:00:08.110Z,1356
2019-02-11T08:01:08.338Z,1476
2019-02-11T08:02:08.336Z,1652
2019-02-11T08:03:08.332Z,1688
2019-02-11T08:04:08.543Z,1720
2019-02-11T08:05:08.599Z,1756
2019-02-11T08:06:09.078Z,1804
2019-02-11T08:07:08.265Z,1812
2019-02-11T08:08:08.259Z,1772
2019-02-11T08:09:08.495Z,1704
2019-02-11T08:10:07.993Z,1644
2019-02-11T08:11:07.992Z,1632
2019-02-11T08:12:08.473Z,1672
2019-02-11T08:13:08.241Z,1732
2019-02-11T08:14:08.205Z,1792
2019-02-11T08:15:08.456Z,1820
2019-02-11T08:16:07.946Z,1832
2019-02-11T08:17:08.190Z,1820
2019-02-11T08:18:08.217Z,1796
2019-02-11T08:19:07.929Z,1800
2019-02-11T08:20:08.001Z,1820
2019-02-11T08:21:08.415Z,1836
2019-02-11T08:22:08.383Z,1880
2019-02-11T08:23:16.360Z,1924
2019-02-11T08:24:08.360Z,1964
2019-02-11T08:25:08.138Z,2024
2019-02-11T08:26:08.690Z,2088
2019-02-11T08:27:08.346Z,2168
2019-02-11T08:28:07.852Z,2244
2019-02-11T08:29:08.333Z,2292
2019-02-11T08:30:08.065Z,2340
2019-02-11T08:31:08.045Z,2372
2019-02-11T08:32:08.295Z,2392
2019-02-11T08:33:07.801Z,2440
2019-02-11T08:34:07.828Z,2500
2019-02-11T08:35:08.260Z,2576
2019-02-11T08:36:08.263Z,2644
2019-02-11T08:37:08.258Z,2692
2019-02-11T08:38:07.765Z,2712
2019-02-11T08:39:09.137Z,2700
2019-02-11T08:40:07.746Z,2720
2019-02-11T08:41:08.214Z,2712
2019-02-11T08:42:07.720Z,2728
2019-02-11T08:43:07.950Z,2764
2019-02-11T08:44:08.216Z,2824
2019-02-11T08:45:08.198Z,2900
2019-02-11T08:46:07.934Z,2904
2019-02-11T08:47:07.909Z,2860
2019-02-11T08:48:08.150Z,2792
2019-02-11T08:49:08.345Z,2752
2019-02-11T08:50:08.220Z,2728
2019-02-11T08:51:07.881Z,2712
2019-02-11T08:52:07.879Z,2696
2019-02-11T08:53:07.862Z,2704
2019-02-11T08:54:08.107Z,2732
2019-02-11T08:55:08.108Z,2744
2019-02-11T08:56:08.301Z,2752
2019-02-11T08:57:07.564Z,2732
2019-02-11T08:58:07.853Z,2708
2019-02-11T08:59:08.064Z,2712
2019-02-11T09:00:07.806Z,2720
2019-02-11T09:01:07.536Z,2740
2019-02-11T09:02:07.782Z,2772
2019-02-11T09:03:07.520Z,2832
2019-02-11T09:04:07.776Z,2912
2019-02-11T09:05:08.024Z,2948
2019-02-11T09:06:07.524Z,2960
2019-02-11T09:07:07.986Z,2948
2019-02-11T09:08:07.946Z,2920
2019-02-11T09:09:07.729Z,2912
2019-02-11T09:10:07.714Z,2936
2019-02-11T09:11:07.964Z,2996
2019-02-11T09:12:07.708Z,3080
2019-02-11T09:13:07.684Z,3156
2019-02-11T09:14:07.428Z,3228
2019-02-11T09:15:07.190Z,3308
2019-02-11T09:16:07.671Z,3340
2019-02-11T09:17:15.099Z,3324
2019-02-11T09:18:07.145Z,3328
2019-02-11T09:19:07.911Z,3348
2019-02-11T09:20:07.143Z,3348
2019-02-11T09:21:07.862Z,3356
2019-02-11T09:22:14.531Z,3348
2019-02-11T09:23:07.844Z,3340
2019-02-11T09:24:07.585Z,3304
2019-02-11T09:25:07.579Z,3260
2019-02-11T09:26:07.591Z,3240
2019-02-11T09:27:07.575Z,3256
2019-02-11T09:28:07.561Z,3252
2019-02-11T09:29:08.132Z,3212
2019-02-11T09:30:07.558Z,3144
2019-02-11T09:31:07.801Z,3052
2019-02-11T09:32:07.767Z,2976
2019-02-11T09:33:07.293Z,2928
2019-02-11T09:34:07.514Z,2936
2019-02-11T09:35:07.661Z,2972
2019-02-11T09:36:08.027Z,3016
2019-02-11T09:37:07.261Z,3100
2019-02-11T09:38:07.498Z,3224
2019-02-11T09:39:07.467Z,3332
2019-02-11T09:40:07.716Z,3356
2019-02-11T09:41:07.212Z,3376
2019-02-11T09:42:07.192Z,3416
2019-02-11T09:43:07.455Z,3460
2019-02-11T09:44:07.689Z,3548
2019-02-11T09:45:07.409Z,3784
2019-02-11T09:46:10.989Z,4132
2019-02-11T09:47:07.388Z,4472
2019-02-11T09:48:07.666Z,4792
2019-02-11T09:49:07.393Z,4980
2019-02-11T09:50:07.383Z,5100
2019-02-11T09:51:07.377Z,5088
2019-02-11T09:52:07.636Z,5020
2019-02-11T09:53:07.601Z,4936
2019-02-11T09:54:07.104Z,4864
2019-02-11T09:55:07.390Z,4832
2019-02-11T09:56:07.100Z,4876
2019-02-11T09:57:07.570Z,4980
2019-02-11T09:58:07.302Z,5092
2019-02-11T09:59:07.314Z,5172
2019-02-11T10:00:07.291Z,5228
2019-02-11T10:01:07.539Z,5288
2019-02-11T10:02:07.267Z,5372
2019-02-11T10:03:07.289Z,5468
2019-02-11T10:04:07.017Z,5532
2019-02-11T10:05:07.271Z,5544
2019-02-11T10:06:07.502Z,5608
2019-02-11T10:07:07.250Z,5708
2019-02-11T10:08:07.243Z,5804
2019-02-11T10:09:07.271Z,5784
2019-02-11T10:10:06.963Z,5620
2019-02-11T10:11:07.212Z,5368
2019-02-11T10:12:07.212Z,5120
2019-02-11T10:13:06.948Z,4940
2019-02-11T10:14:07.226Z,4844
2019-02-11T10:15:06.948Z,4872
2019-02-11T10:16:14.941Z,5040
2019-02-11T10:17:07.156Z,5160
2019-02-11T10:18:07.399Z,5292
2019-02-11T10:19:07.411Z,5480
2019-02-11T10:20:07.230Z,5632
2019-02-11T10:21:06.893Z,5724
2019-02-11T10:22:07.122Z,5780
2019-02-11T10:23:07.127Z,5856
2019-02-11T10:24:07.110Z,5960
2019-02-11T10:25:06.901Z,5964
2019-02-11T10:26:07.113Z,5956
2019-02-11T10:27:07.099Z,6016
2019-02-11T10:28:06.838Z,6040
2019-02-11T10:29:07.116Z,6088
2019-02-11T10:30:06.907Z,6236
2019-02-11T10:31:07.334Z,6916
2019-02-11T10:32:07.055Z,6912
2019-02-11T10:33:07.075Z,7316
2019-02-11T10:34:06.816Z,7176
2019-02-11T10:35:06.634Z,6364
2019-02-11T10:36:07.037Z,6300
2019-02-11T10:37:07.047Z,6120
2019-02-11T10:38:07.024Z,5992
2019-02-11T10:39:07.023Z,5888
2019-02-11T10:40:07.138Z,5888
2019-02-11T10:41:07.241Z,6000
2019-02-11T10:42:06.586Z,6024
2019-02-11T10:43:07.246Z,6140
2019-02-11T10:44:06.965Z,6140
2019-02-11T10:45:06.638Z,6196
2019-02-11T10:46:06.962Z,6316
2019-02-11T10:47:06.720Z,6428
2019-02-11T10:48:06.708Z,6416
2019-02-11T10:49:07.197Z,6488
2019-02-11T10:50:07.113Z,6620
2019-02-11T10:51:06.668Z,6664
2019-02-11T10:52:06.721Z,6548
2019-02-11T10:53:07.031Z,6256
2019-02-11T10:54:07.155Z,5788
2019-02-11T10:55:07.165Z,5824
2019-02-11T10:56:07.139Z,6360
2019-02-11T10:57:06.893Z,6728
2019-02-11T10:58:06.885Z,7040
2019-02-11T10:59:06.914Z,7176
2019-02-11T11:00:07.108Z,7176
2019-02-11T11:01:07.102Z,7100
2019-02-11T11:02:06.841Z,6620
2019-02-11T11:03:06.849Z,6336
2019-02-11T11:04:06.832Z,6248
2019-02-11T11:05:07.078Z,6100
2019-02-11T11:06:06.564Z,6004
2019-02-11T11:07:06.562Z,6108
2019-02-11T11:08:06.786Z,6224
2019-02-11T11:09:07.092Z,6396
2019-02-11T11:10:06.782Z,6540
2019-02-11T11:11:06.536Z,6596
2019-02-11T11:12:06.790Z,7876
2019-02-11T11:13:06.788Z,6516
2019-02-11T11:14:06.281Z,6324
2019-02-11T11:15:07.006Z,6288
2019-02-11T11:16:06.490Z,6388
2019-02-11T11:17:06.493Z,6160
2019-02-11T11:18:06.979Z,6372
2019-02-11T11:19:06.518Z,5800
2019-02-11T11:20:06.990Z,5580
2019-02-11T11:21:06.724Z,5396
2019-02-11T11:22:06.748Z,5104
2019-02-11T11:23:06.979Z,4752
2019-02-11T11:24:06.692Z,4244
2019-02-11T11:25:06.923Z,4020
2019-02-11T11:26:06.422Z,4300
2019-02-11T11:27:06.664Z,4664
2019-02-11T11:28:06.664Z,4276
2019-02-11T11:29:08.149Z,3752
2019-02-11T11:30:06.664Z,3692
2019-02-11T11:31:06.888Z,3560
2019-02-11T11:32:06.879Z,3280
2019-02-11T11:33:06.865Z,3120
2019-02-11T11:34:06.857Z,3140
2019-02-11T11:35:06.371Z,3148
2019-02-11T11:36:06.615Z,3436
2019-02-11T11:37:06.846Z,3984
2019-02-11T11:38:06.088Z,4632
2019-02-11T11:39:06.614Z,5032
2019-02-11T11:40:06.606Z,5304
2019-02-11T11:41:06.816Z,5572
2019-02-11T11:42:06.326Z,5792
2019-02-11T11:43:06.575Z,5960
2019-02-11T11:44:06.791Z,6036
2019-02-11T11:45:06.794Z,6132
2019-02-11T11:46:06.292Z,6312
2019-02-11T11:47:06.785Z,6324
2019-02-11T11:48:06.018Z,6168
2019-02-11T11:49:06.590Z,5976
2019-02-11T11:50:06.506Z,5864
2019-02-11T11:51:06.248Z,5704
2019-02-11T11:52:06.555Z,5500
2019-02-11T11:53:06.735Z,5304
2019-02-11T11:54:06.243Z,5220
2019-02-11T11:55:06.499Z,5276
2019-02-11T11:56:09.690Z,5216
2019-02-11T11:57:06.606Z,5124
2019-02-11T11:58:06.774Z,5088
2019-02-11T11:59:06.784Z,5040
2019-02-11T12:00:06.765Z,5040
2019-02-11T12:01:06.787Z,5024
2019-02-11T12:02:06.465Z,4976
2019-02-11T12:03:11.192Z,4836
2019-02-11T12:04:10.352Z,4668
2019-02-11T12:05:06.196Z,4576
2019-02-11T12:06:06.456Z,4356
2019-02-11T12:07:06.694Z,4216
2019-02-11T12:08:06.755Z,4152
2019-02-11T12:09:06.924Z,4112
2019-02-11T12:10:06.702Z,4252
2019-02-11T12:11:06.420Z,4228
2019-02-11T12:12:06.689Z,3908
2019-02-11T12:13:26.745Z,3836
2019-02-11T12:14:06.707Z,3776
2019-02-11T12:15:06.812Z,3660
2019-02-11T12:16:06.612Z,3532
2019-02-11T12:17:10.062Z,3388
2019-02-11T12:18:06.393Z,3324
2019-02-11T12:19:06.575Z,3324
2019-02-11T12:20:06.792Z,3432
2019-02-11T12:21:06.625Z,3584
2019-02-11T12:22:06.612Z,3708
2019-02-11T12:23:06.713Z,3812
2019-02-11T12:24:06.344Z,3944
2019-02-11T12:25:06.799Z,4136
2019-02-11T12:26:06.549Z,4476
2019-02-11T12:27:06.572Z,4932
2019-02-11T12:28:06.588Z,5276
2019-02-11T12:29:06.257Z,5200
2019-02-11T12:30:06.904Z,5096
2019-02-11T12:31:06.521Z,4716
2019-02-11T12:32:06.609Z,4516
2019-02-11T12:33:06.541Z,4440
2019-02-11T12:34:06.249Z,4536
2019-02-11T12:35:06.478Z,4592
2019-02-11T12:36:06.473Z,4704
2019-02-11T12:37:08.984Z,4836
2019-02-11T12:38:06.280Z,4704
2019-02-11T12:39:06.459Z,4748
2019-02-11T12:40:06.455Z,4744
2019-02-11T12:41:06.446Z,4864
2019-02-11T12:42:06.433Z,4868
2019-02-11T12:43:06.283Z,4800
2019-02-11T12:44:06.417Z,4740
2019-02-11T12:45:06.400Z,4860
2019-02-11T12:46:06.392Z,5048
2019-02-11T12:47:20.562Z,5204
2019-02-11T12:48:06.369Z,5224
2019-02-11T12:49:09.031Z,5324
2019-02-11T12:50:06.131Z,5264
2019-02-11T12:51:06.395Z,5180
2019-02-11T12:52:06.358Z,4856
2019-02-11T12:53:06.370Z,4760
2019-02-11T12:54:06.077Z,4768
2019-02-11T12:55:10.167Z,4876
2019-02-11T12:56:09.659Z,4936
2019-02-11T12:57:06.087Z,5008
2019-02-11T12:58:06.276Z,5064
2019-02-11T12:59:06.281Z,4988
2019-02-11T13:00:06.289Z,4940
2019-02-11T13:01:06.347Z,5000
2019-02-11T13:02:06.058Z,5128
2019-02-11T13:03:06.025Z,5348
2019-02-11T13:04:06.251Z,5748
2019-02-11T13:05:06.357Z,6336
2019-02-11T13:06:06.249Z,6504
2019-02-11T13:07:06.042Z,6372
2019-02-11T13:08:06.080Z,6288
2019-02-11T13:09:06.331Z,6476
2019-02-11T13:10:06.655Z,5812
2019-02-11T13:11:05.973Z,6136
2019-02-11T13:12:06.223Z,5184
2019-02-11T13:13:09.385Z,5380
2019-02-11T13:14:06.190Z,5920
2019-02-11T13:15:05.994Z,4924
2019-02-11T13:16:09.975Z,4380
2019-02-11T13:17:35.687Z,4180
2019-02-11T13:18:06.930Z,5200
2019-02-11T13:19:05.941Z,5104
2019-02-11T13:20:17.231Z,4980
2019-02-11T13:21:06.161Z,4992
2019-02-11T13:22:06.137Z,4952
2019-02-11T13:23:06.181Z,4984
2019-02-11T13:24:05.878Z,5152
2019-02-11T13:25:10.342Z,5272
2019-02-11T13:26:06.130Z,5328
2019-02-11T13:27:06.166Z,5392
2019-02-11T13:28:05.871Z,4580
2019-02-11T13:29:06.378Z,5572
2019-02-11T13:30:06.094Z,4464
2019-02-11T13:31:05.841Z,5320
2019-02-11T13:32:10.291Z,4912
2019-02-11T13:33:06.080Z,5168
2019-02-11T13:34:06.090Z,4668
2019-02-11T13:35:05.811Z,5044
2019-02-11T13:36:06.043Z,5052
2019-02-11T13:37:06.024Z,5024
2019-02-11T13:38:05.787Z,4876
2019-02-11T13:39:05.808Z,4020
2019-02-11T13:40:06.020Z,4052
2019-02-11T13:41:06.050Z,4100
2019-02-11T13:42:05.514Z,4248
2019-02-11T13:43:05.749Z,4892
2019-02-11T13:44:05.746Z,4888
2019-02-11T13:45:06.267Z,5332
2019-02-11T13:46:05.970Z,5524
2019-02-11T13:47:05.792Z,5608
2019-02-11T13:48:06.371Z,5564
2019-02-11T13:49:05.951Z,5444
2019-02-11T13:50:05.938Z,5372
2019-02-11T13:51:05.822Z,4668
2019-02-11T13:52:05.910Z,5028
2019-02-11T13:53:07.506Z,4908
2019-02-11T13:54:05.984Z,4808
2019-02-11T13:55:05.909Z,4896
2019-02-11T13:56:09.539Z,5864
2019-02-11T13:57:05.890Z,5752
2019-02-11T13:58:05.913Z,5696
2019-02-11T13:59:05.640Z,5612